Time;durP1;ratioP1;P1;durP2;ratioP2;P2;SDS_P1;SDS_P2;PMS_P1;PMS_P2;Temp;Humidity;BMP_temperature;BMP_pressure;BME280_temperature;BME280_humidity;BME280_pressure;Samples;Min_cycle;Max_cycle;Signal;HPM_P1;HPM_P2
2022/10/11 00:01:06;;;;;;;11.43;6.47;;;;;;;14.39;100.00;100851.44;5051186;28;20584;-56
2022/10/11 00:03:33;;;;;;;12.70;7.30;;;;;;;14.38;100.00;100856.81;5050475;28;20490;-57
2022/10/11 00:06:01;;;;;;;7.83;6.77;;;;;;;14.34;100.00;100861.41;5051008;28;20524;-56
2022/10/11 00:08:29;;;;;;;14.77;7.30;;;;;;;14.39;100.00;100859.47;5050671;28;20479;-56
2022/10/11 00:11:00;;;;;;;6.80;6.20;;;;;;;14.33;100.00;100861.47;5050548;28;20512;-56
2022/10/11 00:13:27;;;;;;;6.33;5.40;;;;;;;14.25;100.00;100864.38;5050594;28;20811;-56
2022/10/11 00:15:53;;;;;;;8.77;6.37;;;;;;;14.15;100.00;100866.53;5050334;28;20560;-56
2022/10/11 00:18:20;;;;;;;5.50;4.37;;;;;;;14.11;100.00;100867.53;5050178;28;20489;-56
2022/10/11 00:20:47;;;;;;;33.47;4.93;;;;;;;14.06;100.00;100866.81;5050074;28;20951;-57
2022/10/11 00:23:14;;;;;;;5.43;3.60;;;;;;;14.09;100.00;100861.38;5050391;28;20455;-58
2022/10/11 00:25:41;;;;;;;4.60;4.20;;;;;;;14.12;100.00;100865.78;5050228;28;20458;-56
2022/10/11 00:28:07;;;;;;;5.43;4.10;;;;;;;14.17;100.00;100877.16;5049941;28;20482;-57
2022/10/11 00:30:33;;;;;;;6.90;4.77;;;;;;;14.05;100.00;100881.13;5050398;28;20878;-56
2022/10/11 00:33:00;;;;;;;3.07;2.77;;;;;;;14.14;100.00;100871.94;5050056;28;20454;-56
2022/10/11 00:35:26;;;;;;;7.60;5.10;;;;;;;14.22;100.00;100870.72;5049477;28;20620;-57
2022/10/11 00:37:55;;;;;;;6.07;4.30;;;;;;;14.38;100.00;100879.09;5049727;28;20479;-57
2022/10/11 00:40:21;;;;;;;8.07;4.20;;;;;;;14.39;100.00;100874.59;5049912;28;20451;-56
2022/10/11 00:42:48;;;;;;;12.30;3.20;;;;;;;14.46;100.00;100882.41;5050520;28;20450;-56
2022/10/11 00:45:26;;;;;;;3.53;3.33;;;;;;;14.39;100.00;100879.97;5049704;28;20455;-56
2022/10/11 00:47:54;;;;;;;1.80;1.70;;;;;;;14.15;100.00;100882.56;5050033;28;20529;-57
2022/10/11 00:50:23;;;;;;;2.07;1.97;;;;;;;14.37;100.00;100888.03;5036563;28;20826;-57
2022/10/11 00:52:56;;;;;;;2.97;2.77;;;;;;;14.33;100.00;100889.09;5028907;28;20459;-57
2022/10/11 00:55:25;;;;;;;30.27;3.57;;;;;;;14.37;100.00;100892.53;5049642;28;20483;-56
2022/10/11 00:57:54;;;;;;;3.57;3.10;;;;;;;14.10;100.00;100897.00;5049350;28;20455;-57
2022/10/11 01:00:21;;;;;;;8.17;2.60;;;;;;;14.09;100.00;100898.78;5050034;28;20454;-57
2022/10/11 01:02:47;;;;;;;2.10;2.00;;;;;;;14.31;100.00;100898.97;5049510;28;20504;-57
2022/10/11 01:05:16;;;;;;;1.80;1.70;;;;;;;14.25;100.00;100901.81;5049346;28;20818;-56
2022/10/11 01:07:56;;;;;;;8.87;1.73;;;;;;;14.18;100.00;100913.66;5049371;28;20471;-57
2022/10/11 01:10:23;;;;;;;4.20;1.63;;;;;;;14.36;100.00;100904.16;5049186;28;20454;-57
2022/10/11 01:12:58;;;;;;;2.43;1.67;;;;;;;14.25;100.00;100904.50;5049473;28;20451;-57
2022/10/11 01:15:34;;;;;;;2.10;1.33;;;;;;;13.92;100.00;100912.72;5042883;28;20497;-57
2022/10/11 01:18:12;;;;;;;1.73;1.63;;;;;;;13.89;100.00;100918.19;5049263;28;20884;-56
2022/10/11 01:20:56;;;;;;;2.20;2.10;;;;;;;13.97;100.00;100909.88;5049631;28;20466;-56
2022/10/11 01:23:46;;;;;;;2.00;1.80;;;;;;;13.85;100.00;100913.88;5049378;28;20451;-57
2022/10/11 01:26:44;;;;;;;1.57;1.47;;;;;;;13.92;100.00;100910.06;5035206;28;20499;-57
2022/10/11 01:29:15;;;;;;;12.73;1.93;;;;;;;13.79;100.00;100916.72;5048801;28;20996;-56
2022/10/11 01:31:57;;;;;;;3.93;2.07;;;;;;;13.72;100.00;100919.66;5049310;28;20450;-57
2022/10/11 01:34:29;;;;;;;0.70;0.70;;;;;;;13.60;100.00;100918.22;5048844;28;20924;-57
2022/10/11 01:37:16;;;;;;;1.77;1.10;;;;;;;13.70;100.00;100922.34;5048918;28;20455;-57
2022/10/11 01:39:50;;;;;;;1.70;1.47;;;;;;;13.64;100.00;100911.84;5049258;28;20474;-58
2022/10/11 01:42:18;;;;;;;1.10;1.00;;;;;;;13.74;100.00;100920.47;5049471;28;20442;-57
2022/10/11 01:44:48;;;;;;;2.80;1.17;;;;;;;13.67;100.00;100917.09;5048990;28;20447;-56
2022/10/11 01:47:19;;;;;;;2.93;2.50;;;;;;;13.64;100.00;100915.41;5048656;28;21013;-56
2022/10/11 01:49:53;;;;;;;4.83;1.93;;;;;;;13.56;100.00;100916.53;5048591;28;20555;-56
2022/10/11 01:52:20;;;;;;;20.93;2.17;;;;;;;13.52;100.00;100918.44;5048832;28;20474;-57
2022/10/11 01:55:12;;;;;;;2.40;1.80;;;;;;;13.50;100.00;100924.75;5048656;28;20486;-57
2022/10/11 01:58:04;;;;;;;3.63;1.53;;;;;;;13.31;100.00;100928.00;5048778;28;20451;-57
2022/10/11 02:00:54;;;;;;;1.90;0.80;;;;;;;13.24;100.00;100931.75;5039525;28;20458;-56
2022/10/11 02:03:32;;;;;;;1.47;1.37;;;;;;;13.23;100.00;100932.66;5035838;28;20457;-57
2022/10/11 02:06:10;;;;;;;9.20;0.87;;;;;;;13.17;100.00;100931.94;5049206;28;20442;-56
2022/10/11 02:09:00;;;;;;;4.20;1.23;;;;;;;13.16;100.00;100936.41;5048560;28;21008;-57
2022/10/11 02:11:34;;;;;;;1.40;1.30;;;;;;;13.20;100.00;100930.09;5048974;28;20450;-57
2022/10/11 02:14:11;;;;;;;2.17;1.70;;;;;;;13.07;100.00;100936.66;5048584;28;20455;-56
2022/10/11 02:17:06;;;;;;;6.33;1.63;;;;;;;13.07;100.00;100938.47;5048885;28;20512;-56
2022/10/11 02:19:41;;;;;;;6.00;1.30;;;;;;;13.07;100.00;100943.81;5036088;28;20483;-56
2022/10/11 02:22:14;;;;;;;2.33;1.17;;;;;;;13.00;100.00;100943.97;5048693;28;20454;-56
2022/10/11 02:24:46;;;;;;;1.90;1.10;;;;;;;13.01;100.00;100950.16;5048685;28;20446;-56
2022/10/11 02:27:14;;;;;;;5.13;1.60;;;;;;;12.91;100.00;100948.69;5049027;28;20447;-56
2022/10/11 02:29:43;;;;;;;0.80;0.80;;;;;;;12.89;100.00;100950.53;5047251;28;20527;-56
2022/10/11 02:32:10;;;;;;;3.07;1.27;;;;;;;12.75;100.00;100943.78;5048787;28;20454;-57
2022/10/11 02:34:45;;;;;;;0.73;0.73;;;;;;;12.74;100.00;100954.47;5048464;28;20494;-56
2022/10/11 02:37:39;;;;;;;23.17;1.13;;;;;;;12.77;100.00;100953.53;5048360;28;20449;-56
2022/10/11 02:40:19;;;;;;;10.77;1.53;;;;;;;12.81;100.00;100950.72;5048447;28;20900;-56
2022/10/11 02:43:16;;;;;;;5.30;1.60;;;;;;;13.41;100.00;100957.06;5048746;28;20884;-56
2022/10/11 02:45:49;;;;;;;2.27;2.07;;;;;;;13.24;100.00;100962.91;5037598;28;20505;-56
2022/10/11 02:48:17;;;;;;;0.70;0.70;;;;;;;12.88;100.00;100970.09;5048430;28;20971;-55
2022/10/11 02:50:44;;;;;;;1.80;0.67;;;;;;;12.75;100.00;100961.59;5048061;28;20458;-56
2022/10/11 02:53:10;;;;;;;2.53;2.33;;;;;;;12.71;100.00;100979.44;5048206;28;20458;-56
2022/10/11 02:55:36;;;;;;;0.80;0.80;;;;;;;12.90;100.00;100970.97;5047247;28;20540;-56
2022/10/11 02:58:03;;;;;;;2.80;1.20;;;;;;;13.09;100.00;100971.31;5048558;28;20471;-56
2022/10/11 03:00:30;;;;;;;7.10;2.30;;;;;;;12.74;100.00;100974.00;5050954;28;20455;-55
2022/10/11 03:02:56;;;;;;;13.63;1.70;;;;;;;12.70;100.00;100979.47;5051552;28;20481;-56
2022/10/11 03:05:23;;;;;;;1.67;1.37;;;;;;;12.84;100.00;100979.13;5051983;28;20452;-56
2022/10/11 03:07:49;;;;;;;8.20;2.47;;;;;;;13.09;100.00;100984.66;5051905;28;20508;-57
2022/10/11 03:10:16;;;;;;;1.27;1.17;;;;;;;13.14;100.00;100980.94;5051869;28;20451;-56
2022/10/11 03:12:42;;;;;;;40.73;1.43;;;;;;;12.88;100.00;100984.31;5051486;28;20447;-56
2022/10/11 03:15:09;;;;;;;0.57;0.50;;;;;;;12.99;100.00;100989.38;5051637;28;21030;-56
2022/10/11 03:17:35;;;;;;;0.67;0.57;;;;;;;13.32;100.00;100982.28;5051365;28;21795;-56
2022/10/11 03:20:04;;;;;;;6.27;0.80;;;;;;;12.93;100.00;100984.22;5051553;28;20541;-56
2022/10/11 03:22:31;;;;;;;2.33;0.80;;;;;;;12.87;100.00;100987.03;5051490;28;20450;-57
2022/10/11 03:24:57;;;;;;;0.87;0.50;;;;;;;13.20;100.00;100980.81;5051564;28;20443;-56
2022/10/11 03:27:29;;;;;;;0.80;0.70;;;;;;;13.30;100.00;100982.31;5051339;28;20447;-56
2022/10/11 03:29:55;;;;;;;2.50;0.83;;;;;;;12.93;100.00;100986.88;5051269;28;20524;-56
2022/10/11 03:32:22;;;;;;;1.93;1.23;;;;;;;12.68;100.00;100990.19;5051386;28;20874;-56
2022/10/11 03:34:48;;;;;;;1.80;0.73;;;;;;;12.95;100.00;100995.72;5051098;28;20975;-56
2022/10/11 03:37:15;;;;;;;6.00;0.67;;;;;;;12.94;100.00;100999.31;5051123;28;20504;-57
2022/10/11 03:39:41;;;;;;;0.50;0.30;;;;;;;13.02;100.00;101010.66;5051251;28;20616;-56
2022/10/11 03:42:08;;;;;;;0.80;0.80;;;;;;;12.91;100.00;101004.72;5051099;28;20509;-57
2022/10/11 03:44:34;;;;;;;0.50;0.47;;;;;;;12.57;100.00;101000.25;5050240;28;20951;-56
2022/10/11 03:47:00;;;;;;;9.27;1.33;;;;;;;12.29;100.00;101002.72;5037946;28;20455;-56
2022/10/11 03:49:27;;;;;;;1.57;0.63;;;;;;;12.03;100.00;101006.00;5050836;28;20479;-57
2022/10/11 03:51:54;;;;;;;5.20;1.23;;;;;;;11.94;100.00;101010.69;5037887;28;20516;-56
2022/10/11 03:54:20;;;;;;;9.83;0.90;;;;;;;11.79;100.00;101015.44;5049699;28;20462;-56
2022/10/11 03:56:47;;;;;;;5.40;2.03;;;;;;;11.77;100.00;101013.66;5037459;28;20501;-56
2022/10/11 03:59:13;;;;;;;0.97;0.97;;;;;;;11.67;100.00;101014.81;5050419;28;20470;-57
2022/10/11 04:01:40;;;;;;;1.20;1.13;;;;;;;11.49;100.00;101016.91;5050866;28;20454;-56
2022/10/11 04:04:06;;;;;;;0.40;0.30;;;;;;;11.56;100.00;101021.22;5050522;28;21025;-57
2022/10/11 04:06:32;;;;;;;11.33;0.90;;;;;;;11.53;100.00;101012.44;5050614;28;20495;-56
2022/10/11 04:09:00;;;;;;;3.00;0.90;;;;;;;11.85;100.00;101025.97;5050486;28;20520;-56
2022/10/11 04:11:26;;;;;;;6.87;1.40;;;;;;;11.61;100.00;101025.56;5050280;28;20451;-56
2022/10/11 04:13:53;;;;;;;1.00;0.70;;;;;;;11.69;100.00;101029.84;5050046;28;20940;-56
2022/10/11 04:16:19;;;;;;;4.97;0.90;;;;;;;11.77;100.00;101029.66;5050466;28;20944;-56
2022/10/11 04:18:45;;;;;;;7.53;1.07;;;;;;;11.83;100.00;101026.91;5050264;28;20528;-56
2022/10/11 04:21:12;;;;;;;1.03;1.03;;;;;;;11.93;100.00;101032.91;5050299;28;20451;-57
2022/10/11 04:23:38;;;;;;;3.07;0.50;;;;;;;11.85;100.00;101033.94;5050284;28;20455;-56
2022/10/11 04:26:06;;;;;;;5.43;0.90;;;;;;;11.68;100.00;101033.41;5050342;28;20494;-56
2022/10/11 04:28:34;;;;;;;0.47;0.37;;;;;;;11.82;100.00;101034.03;5050166;28;20540;-56
2022/10/11 04:31:03;;;;;;;1.80;0.70;;;;;;;11.60;100.00;101039.78;5050122;28;21039;-56
2022/10/11 04:33:29;;;;;;;0.80;0.70;;;;;;;11.39;100.00;101046.44;5050002;28;20956;-56
2022/10/11 04:35:56;;;;;;;1.37;1.07;;;;;;;11.15;100.00;101042.47;5050070;28;20478;-56
2022/10/11 04:38:23;;;;;;;0.60;0.60;;;;;;;11.22;100.00;101039.63;5049833;28;20474;-56
2022/10/11 04:40:49;;;;;;;0.50;0.40;;;;;;;10.91;100.00;101054.41;5049894;28;20450;-56
2022/10/11 04:43:17;;;;;;;0.70;0.43;;;;;;;10.90;100.00;101056.22;5050069;28;20520;-59
2022/10/11 04:45:43;;;;;;;1.53;1.43;;;;;;;10.91;100.00;101054.41;5049917;28;20490;-56
2022/10/11 04:48:10;;;;;;;12.90;0.80;;;;;;;10.79;100.00;101059.94;5048762;28;20470;-56
2022/10/11 04:50:36;;;;;;;0.40;0.30;;;;;;;10.88;100.00;101060.69;5049710;28;20455;-56
2022/10/11 04:53:03;;;;;;;1.43;1.33;;;;;;;10.96;100.00;101058.78;5049435;28;20956;-56
2022/10/11 04:55:29;;;;;;;0.73;0.60;;;;;;;11.03;100.00;101070.16;5050007;28;20451;-57
2022/10/11 04:57:55;;;;;;;0.40;0.30;;;;;;;10.98;100.00;101067.59;5049605;28;20479;-56
2022/10/11 05:00:22;;;;;;;0.60;0.40;;;;;;;11.23;100.00;101069.78;5049782;28;20478;-56
2022/10/11 05:02:48;;;;;;;1.83;0.67;;;;;;;11.16;100.00;101071.69;5046422;28;21022;-57
2022/10/11 05:05:16;;;;;;;11.20;1.00;;;;;;;10.91;100.00;101076.56;5048362;28;20498;-56
2022/10/11 05:07:43;;;;;;;0.57;0.37;;;;;;;11.04;100.00;101087.88;5049185;28;20963;-56
2022/10/11 05:10:09;;;;;;;3.30;0.53;;;;;;;11.43;100.00;101080.94;5049585;28;20485;-57
2022/10/11 05:12:36;;;;;;;0.63;0.43;;;;;;;11.52;100.00;101087.91;5049448;28;20500;-55
2022/10/11 05:15:03;;;;;;;16.13;0.87;;;;;;;11.63;100.00;101083.19;5049417;28;20500;-56
2022/10/11 05:17:29;;;;;;;2.77;2.53;;;;;;;11.45;100.00;101089.78;5049517;28;20501;-56
2022/10/11 05:19:55;;;;;;;0.50;0.47;;;;;;;11.19;100.00;101092.94;5049160;28;20475;-57
2022/10/11 05:22:22;;;;;;;0.70;0.60;;;;;;;11.14;100.00;101092.16;5048601;28;20450;-56
2022/10/11 05:24:48;;;;;;;17.90;2.87;;;;;;;11.16;100.00;101098.31;5049442;28;20877;-56
2022/10/11 05:27:15;;;;;;;8.97;2.00;;;;;;;11.20;100.00;101099.13;5049192;28;20877;-56
2022/10/11 05:29:41;;;;;;;1.70;0.47;;;;;;;11.11;100.00;101100.19;5049137;28;20886;-56
2022/10/11 05:32:08;;;;;;;1.33;0.60;;;;;;;10.88;100.00;101097.91;5049005;28;20480;-55
2022/10/11 05:34:34;;;;;;;6.60;2.30;;;;;;;11.27;100.00;101111.44;5049218;28;20455;-56
2022/10/11 05:37:00;;;;;;;0.90;0.60;;;;;;;11.23;100.00;101113.25;5048722;28;20505;-56
2022/10/11 05:39:27;;;;;;;1.00;0.40;;;;;;;11.49;100.00;101120.75;5049147;28;20497;-57
2022/10/11 05:41:53;;;;;;;0.93;0.40;;;;;;;11.64;100.00;101114.25;5047785;28;20450;-55
2022/10/11 05:44:19;;;;;;;0.90;0.57;;;;;;;11.50;100.00;101109.19;5048038;28;20505;-56
2022/10/11 05:46:46;;;;;;;0.60;0.60;;;;;;;11.48;100.00;101121.66;5048910;28;20494;-56
2022/10/11 05:49:12;;;;;;;0.90;0.77;;;;;;;11.54;100.00;101121.56;5048938;28;21053;-56
2022/10/11 05:51:39;;;;;;;9.97;0.67;;;;;;;11.41;100.00;101136.00;5048409;28;20465;-56
2022/10/11 05:54:05;;;;;;;11.63;0.93;;;;;;;11.51;100.00;101134.03;5048871;28;20454;-56
2022/10/11 05:56:31;;;;;;;13.23;0.60;;;;;;;11.60;100.00;101135.66;5048901;28;20452;-56
2022/10/11 05:58:58;;;;;;;2.30;0.90;;;;;;;11.41;100.00;101138.69;5048906;28;20478;-57
2022/10/11 06:01:28;;;;;;;3.23;0.90;;;;;;;11.24;100.00;101146.09;5048654;28;20472;-56
2022/10/11 06:03:54;;;;;;;9.53;0.73;;;;;;;11.31;100.00;101144.19;5048754;28;20458;-56
2022/10/11 06:06:21;;;;;;;2.30;2.10;;;;;;;11.31;100.00;101153.03;5048305;28;20497;-56
2022/10/11 06:08:48;;;;;;;9.43;1.17;;;;;;;11.16;100.00;101154.19;5048941;28;20623;-56
2022/10/11 06:11:20;;;;;;;4.80;1.27;;;;;;;11.43;100.00;101163.47;5048581;28;21018;-55
2022/10/11 06:13:47;;;;;;;2.43;0.93;;;;;;;11.36;100.00;101160.94;5048595;28;20446;-56
2022/10/11 06:16:14;;;;;;;18.77;2.60;;;;;;;11.12;100.00;101170.25;5048873;28;20450;-56
2022/10/11 06:18:41;;;;;;;0.53;0.40;;;;;;;11.46;100.00;101163.41;5047407;28;20516;-56
2022/10/11 06:21:07;;;;;;;0.70;0.37;;;;;;;11.83;100.00;101160.97;5048752;28;20462;-57
2022/10/11 06:23:34;;;;;;;10.50;1.33;;;;;;;11.34;100.00;101152.09;5048548;28;20454;-56
2022/10/11 06:26:04;;;;;;;2.30;0.80;;;;;;;11.45;100.00;101167.00;5048626;28;20532;-56
2022/10/11 06:28:32;;;;;;;1.70;0.57;;;;;;;11.19;100.00;101166.56;5048504;28;20477;-55
2022/10/11 06:31:01;;;;;;;0.50;0.37;;;;;;;10.79;100.00;101172.53;5049254;28;20451;-55
2022/10/11 06:33:27;;;;;;;0.40;0.30;;;;;;;11.04;100.00;101175.69;5048621;28;20450;-55
2022/10/11 06:35:58;;;;;;;1.30;0.70;;;;;;;10.74;100.00;101187.69;5052038;28;20442;-55
2022/10/11 06:38:25;;;;;;;0.50;0.40;;;;;;;10.62;100.00;101191.38;5052317;28;20531;-56
2022/10/11 06:40:52;;;;;;;1.23;0.70;;;;;;;10.50;100.00;101186.25;5053624;28;20447;-56
2022/10/11 06:43:19;;;;;;;0.90;0.40;;;;;;;10.33;100.00;101191.78;5050583;28;20454;-55
2022/10/11 06:45:45;;;;;;;1.77;0.70;;;;;;;10.42;100.00;101192.59;5053684;28;20548;-56
2022/10/11 06:48:11;;;;;;;1.23;0.70;;;;;;;10.36;100.00;101198.84;5052158;28;20474;-56
2022/10/11 06:50:38;;;;;;;1.30;1.00;;;;;;;10.27;100.00;101197.16;5052120;28;20457;-56
2022/10/11 06:53:25;;;;;;;0.80;0.80;;;;;;;10.28;100.00;101204.28;5051903;28;20458;-56
2022/10/11 06:55:51;;;;;;;0.50;0.43;;;;;;;10.38;100.00;101205.00;5052029;28;20948;-56
2022/10/11 06:58:18;;;;;;;3.13;1.10;;;;;;;10.72;100.00;101208.09;5052229;28;20480;-56
2022/10/11 07:00:44;;;;;;;3.83;0.93;;;;;;;10.65;100.00;101215.28;5052452;28;20466;-56
2022/10/11 07:03:11;;;;;;;15.73;0.63;;;;;;;10.55;100.00;101205.69;5050931;28;20514;-56
2022/10/11 07:05:37;;;;;;;7.03;1.33;;;;;;;10.18;100.00;101215.88;5052203;28;21132;-56
2022/10/11 07:08:04;;;;;;;1.70;1.60;;;;;;;10.32;100.00;101218.38;5051624;28;20482;-56
2022/10/11 07:10:30;;;;;;;1.07;0.53;;;;;;;10.54;100.00;101213.66;5051754;28;20451;-56
2022/10/11 07:12:56;;;;;;;0.70;0.47;;;;;;;10.55;100.00;101215.41;5051471;28;20518;-56
2022/10/11 07:15:23;;;;;;;0.33;0.30;;;;;;;10.58;100.00;101221.59;5052494;28;20508;-56
2022/10/11 07:17:49;;;;;;;14.53;1.03;;;;;;;11.02;100.00;101227.16;5051508;28;20442;-56
2022/10/11 07:20:15;;;;;;;0.67;0.57;;;;;;;10.84;100.00;101228.31;5051399;28;20971;-56
2022/10/11 07:22:42;;;;;;;6.00;0.50;;;;;;;10.78;100.00;101236.38;5051393;28;20454;-56
2022/10/11 07:25:08;;;;;;;36.27;1.70;;;;;;;10.86;100.00;101237.16;5051326;28;20455;-56
2022/10/11 07:27:35;;;;;;;5.23;1.30;;;;;;;10.76;100.00;101241.72;5050953;28;20497;-56
2022/10/11 07:30:01;;;;;;;0.67;0.67;;;;;;;10.71;100.00;101242.69;5052045;28;20450;-56
2022/10/11 07:32:27;;;;;;;1.50;0.60;;;;;;;10.85;100.00;101238.06;5051407;28;20894;-57
2022/10/11 07:34:55;;;;;;;0.73;0.73;;;;;;;10.96;100.00;101241.41;5051343;28;20458;-56
2022/10/11 07:37:21;;;;;;;0.50;0.43;;;;;;;11.00;100.00;101240.50;5038151;28;20446;-56
2022/10/11 07:39:48;;;;;;;0.60;0.50;;;;;;;11.07;100.00;101243.91;5051046;28;20467;-56
2022/10/11 07:42:14;;;;;;;2.03;1.83;;;;;;;11.06;100.00;101242.16;5051054;28;20828;-56
2022/10/11 07:44:41;;;;;;;6.33;0.93;;;;;;;11.04;100.00;101242.19;5050959;28;20454;-56
2022/10/11 07:47:07;;;;;;;0.80;0.80;;;;;;;11.21;100.00;101248.13;5051091;28;20545;-56
2022/10/11 07:49:36;;;;;;;1.33;0.50;;;;;;;11.33;100.00;101244.41;5051339;28;20467;-56
2022/10/11 07:52:03;;;;;;;2.87;0.67;;;;;;;11.43;100.00;101242.47;5049599;28;20516;-56
2022/10/11 07:54:29;;;;;;;2.50;0.80;;;;;;;11.56;100.00;101239.56;5050452;28;20865;-56
2022/10/11 07:56:56;;;;;;;3.70;0.60;;;;;;;11.53;100.00;101242.28;5051173;28;20450;-56
2022/10/11 07:59:22;;;;;;;4.00;0.67;;;;;;;11.52;100.00;101237.00;5050793;28;20544;-56
2022/10/11 08:01:49;;;;;;;0.50;0.37;;;;;;;11.62;100.00;101243.03;5050949;28;20458;-56
2022/10/11 08:04:15;;;;;;;0.40;0.30;;;;;;;11.61;100.00;101243.94;5050640;28;20508;-56
2022/10/11 08:06:42;;;;;;;17.80;1.20;;;;;;;11.76;100.00;101243.66;5051694;28;20493;-55
2022/10/11 08:09:09;;;;;;;1.33;0.60;;;;;;;11.78;100.00;101252.50;5050293;28;20520;-55
2022/10/11 08:11:36;;;;;;;1.70;0.87;;;;;;;12.01;100.00;101260.09;5050625;28;20455;-55
2022/10/11 08:14:07;;;;;;;3.77;0.63;;;;;;;12.04;100.00;101258.25;5046163;28;20479;-56
2022/10/11 08:16:35;;;;;;;0.40;0.40;;;;;;;12.22;100.00;101257.03;5050962;28;20500;-55
2022/10/11 08:19:02;;;;;;;0.83;0.83;;;;;;;12.46;100.00;101250.31;5050179;28;20991;-56
2022/10/11 08:21:29;;;;;;;2.40;0.87;;;;;;;12.59;98.99;101251.81;5050378;28;20505;-55
2022/10/11 08:23:55;;;;;;;0.90;0.90;;;;;;;12.62;95.38;101253.56;5050306;28;20450;-55
2022/10/11 08:26:22;;;;;;;2.10;0.50;;;;;;;12.60;95.13;101256.22;5050371;28;21050;-56
2022/10/11 08:28:48;;;;;;;1.10;0.63;;;;;;;12.56;94.50;101253.66;5048755;28;20987;-55
2022/10/11 08:31:15;;;;;;;2.77;1.20;;;;;;;12.59;93.96;101259.81;5048976;28;20549;-55
2022/10/11 08:33:42;;;;;;;1.20;0.47;;;;;;;12.81;93.83;101249.56;5049993;28;20461;-55
2022/10/11 08:36:09;;;;;;;9.57;2.80;;;;;;;12.67;93.87;101257.00;5050106;28;20851;-56
2022/10/11 08:38:37;;;;;;;3.17;0.80;;;;;;;12.89;93.52;101257.41;5050187;28;20470;-55
2022/10/11 08:41:23;;;;;;;1.37;0.77;;;;;;;12.80;92.79;101250.47;5048873;28;20462;-57
2022/10/11 08:44:11;;;;;;;0.50;0.30;;;;;;;12.91;95.04;101258.25;5049838;28;21033;-55
2022/10/11 08:46:41;;;;;;;19.80;0.60;;;;;;;13.13;95.26;101259.50;5048584;28;20943;-55
2022/10/11 08:49:11;;;;;;;6.20;0.80;;;;;;;13.40;93.78;101252.63;5050013;28;20471;-56
2022/10/11 08:51:45;;;;;;;0.97;0.97;;;;;;;13.33;94.24;101254.59;5049820;28;20462;-56
2022/10/11 08:54:38;;;;;;;6.50;0.93;;;;;;;13.59;92.83;101258.41;5049961;28;20446;-56
2022/10/11 08:57:06;;;;;;;11.23;1.50;;;;;;;13.73;87.43;101253.59;5040926;28;20451;-56
2022/10/11 08:59:45;;;;;;;1.27;0.73;;;;;;;13.78;88.89;101261.47;5046722;28;20871;-56
2022/10/11 09:02:17;;;;;;;4.10;0.97;;;;;;;13.49;87.13;101260.44;5041629;28;20508;-56
2022/10/11 09:04:48;;;;;;;1.23;1.13;;;;;;;13.72;89.02;101259.84;5049490;28;20504;-56
2022/10/11 09:07:34;;;;;;;13.20;0.50;;;;;;;13.45;88.28;101260.56;5049252;28;20887;-56
2022/10/11 09:10:47;;;;;;;4.10;0.50;;;;;;;13.45;88.55;101256.09;5049545;28;20450;-56
2022/10/11 09:13:33;;;;;;;1.63;0.37;;;;;;;13.32;88.86;101260.84;5036903;28;20481;-56
2022/10/11 09:16:12;;;;;;;0.47;0.33;;;;;;;13.58;89.62;101251.31;5047715;28;20474;-56
2022/10/11 09:18:55;;;;;;;2.50;0.30;;;;;;;13.61;89.81;101260.13;5049585;28;20516;-56
2022/10/11 09:21:54;;;;;;;1.40;0.80;;;;;;;13.41;88.40;101261.53;5037935;28;20826;-56
2022/10/11 09:24:44;;;;;;;1.33;1.23;;;;;;;13.56;88.63;101262.03;5048088;28;20520;-56
2022/10/11 09:27:29;;;;;;;6.43;1.53;;;;;;;13.76;89.36;101255.31;5048151;28;20531;-56
2022/10/11 09:30:18;;;;;;;3.17;1.03;;;;;;;13.63;87.91;101257.41;5049248;28;20496;-56
2022/10/11 09:32:53;;;;;;;0.77;0.70;;;;;;;13.81;85.15;101256.03;5049368;28;20486;-55
2022/10/11 09:35:21;;;;;;;20.43;1.33;;;;;;;13.83;86.45;101254.22;5049280;28;20512;-56
2022/10/11 09:37:52;;;;;;;8.50;1.07;;;;;;;13.75;85.63;101256.22;5048947;28;21005;-56
2022/10/11 09:40:49;;;;;;;8.60;0.80;;;;;;;13.91;87.34;101249.56;5048311;28;20500;-55
2022/10/11 09:43:15;;;;;;;3.70;1.17;;;;;;;14.00;87.33;101241.28;5047751;28;20448;-56
2022/10/11 09:45:44;;;;;;;2.93;0.77;;;;;;;13.96;86.56;101241.41;5049341;28;20462;-56
2022/10/11 09:48:21;;;;;;;1.60;0.83;;;;;;;13.91;86.40;101247.75;5048629;28;21129;-55
2022/10/11 09:50:50;;;;;;;1.40;0.53;;;;;;;13.70;84.15;101245.63;5048996;28;20993;-55
2022/10/11 09:53:18;;;;;;;1.20;0.83;;;;;;;13.93;85.82;101247.72;5048613;28;20447;-55
2022/10/11 09:55:52;;;;;;;0.40;0.30;;;;;;;13.79;84.98;101247.19;5049081;28;20454;-55
2022/10/11 09:58:34;;;;;;;0.70;0.70;;;;;;;14.08;84.38;101249.97;5048803;28;20465;-55
2022/10/11 10:01:02;;;;;;;3.10;0.73;;;;;;;14.30;84.67;101246.69;5048855;28;20454;-56
2022/10/11 10:03:39;;;;;;;1.47;1.07;;;;;;;14.44;85.57;101240.06;5047549;28;20447;-56
2022/10/11 10:06:23;;;;;;;4.30;0.80;;;;;;;14.28;82.75;101244.06;5048746;28;20459;-56
2022/10/11 10:08:50;;;;;;;5.70;0.93;;;;;;;14.69;80.93;101234.00;5050836;28;21003;-56
2022/10/11 10:11:18;;;;;;;4.73;1.10;;;;;;;14.75;81.08;101241.81;5052940;28;20809;-56
2022/10/11 10:13:50;;;;;;;2.00;0.77;;;;;;;14.27;82.37;101234.28;5052638;28;20504;-56
2022/10/11 10:16:37;;;;;;;0.60;0.60;;;;;;;14.48;80.62;101228.34;5039985;28;20461;-56
2022/10/11 10:19:06;;;;;;;14.53;0.70;;;;;;;14.65;80.54;101234.97;5052534;28;21069;-55
2022/10/11 10:21:42;;;;;;;4.37;0.70;;;;;;;14.62;80.05;101235.94;5052887;28;20869;-56
2022/10/11 10:24:27;;;;;;;0.50;0.30;;;;;;;14.70;80.34;101233.06;5052521;28;20484;-56
2022/10/11 10:27:13;;;;;;;3.20;1.13;;;;;;;14.65;79.23;101232.31;5052484;28;20498;-56
2022/10/11 10:29:40;;;;;;;0.50;0.33;;;;;;;14.90;78.88;101224.41;5052387;28;21116;-55
2022/10/11 10:32:26;;;;;;;2.20;0.70;;;;;;;14.78;79.66;101226.53;5052268;28;20455;-55
2022/10/11 10:35:05;;;;;;;1.43;0.40;;;;;;;14.76;79.73;101222.16;5052289;28;20525;-56
2022/10/11 10:37:37;;;;;;;13.43;1.40;;;;;;;14.71;80.95;101222.31;5052507;28;20913;-56
2022/10/11 10:40:24;;;;;;;1.17;0.57;;;;;;;14.98;80.54;101231.28;5052332;28;20461;-56
2022/10/11 10:42:51;;;;;;;1.60;0.70;;;;;;;15.16;81.04;101235.16;5052286;28;20449;-56
2022/10/11 10:45:24;;;;;;;2.20;0.63;;;;;;;15.25;79.31;101229.50;5052079;28;20454;-56
2022/10/11 10:48:28;;;;;;;3.87;0.90;;;;;;;15.22;78.02;101229.63;5050886;28;20494;-56
2022/10/11 10:51:46;;;;;;;5.50;1.27;;;;;;;14.94;78.36;101242.09;5025571;28;20503;-56
2022/10/11 10:54:28;;;;;;;19.13;0.60;;;;;;;15.35;78.53;101235.41;5050821;28;20487;-56
2022/10/11 10:56:59;;;;;;;0.50;0.30;;;;;;;14.88;80.43;101237.84;5052455;28;20492;-55
2022/10/11 10:59:50;;;;;;;1.00;0.90;;;;;;;15.01;81.86;101233.84;5051725;28;21140;-55
2022/10/11 11:02:26;;;;;;;28.77;0.80;;;;;;;14.95;80.30;101225.16;5052072;28;20796;-56
2022/10/11 11:05:22;;;;;;;5.13;0.87;;;;;;;15.55;78.64;101227.59;5052365;28;20490;-58
2022/10/11 11:08:14;;;;;;;16.47;1.83;;;;;;;15.65;77.76;101221.03;5050403;28;20999;-56
2022/10/11 11:11:06;;;;;;;2.93;2.07;;;;;;;15.66;76.91;101221.91;5051955;28;20501;-57
2022/10/11 11:14:02;;;;;;;8.50;0.50;;;;;;;15.37;79.71;101223.75;5027127;28;20447;-55
2022/10/11 11:16:47;;;;;;;2.93;0.60;;;;;;;15.39;79.30;101221.91;5040704;28;20968;-55
2022/10/11 11:19:37;;;;;;;5.93;1.03;;;;;;;15.32;79.57;101216.78;5052128;28;20470;-55
2022/10/11 11:22:38;;;;;;;5.60;1.97;;;;;;;15.31;79.20;101210.53;5051666;28;20942;-56
2022/10/11 11:25:10;;;;;;;8.50;0.57;;;;;;;15.52;79.28;101221.47;5051794;28;20454;-56
2022/10/11 11:28:09;;;;;;;14.57;1.20;;;;;;;15.56;79.07;101213.28;5051851;28;20532;-56
2022/10/11 11:30:45;;;;;;;1.57;0.80;;;;;;;15.55;78.41;101208.84;5051720;28;20516;-56
2022/10/11 11:33:33;;;;;;;5.90;1.07;;;;;;;15.34;79.01;101204.19;5052311;28;20875;-56
2022/10/11 11:36:12;;;;;;;1.37;1.37;;;;;;;15.40;79.37;101204.88;5051973;28;20451;-56
2022/10/11 11:38:49;;;;;;;19.63;1.57;;;;;;;15.61;79.18;101192.56;5051750;28;20520;-56
2022/10/11 11:41:27;;;;;;;2.70;0.50;;;;;;;15.76;75.65;101193.88;5051711;28;20507;-57